KGUP/GUP METAR and TAF weather

Enter ICAO airport designator
Station Type Date Time Source
KGUP METAR 2020/11/28 18:53 UTC NOAA

KGUP 281853Z AUTO 23006KT 10SM CLR 04/M02 A3026 RMK AO2 SLP243 T00391017


Station Type Date Time Source
KGUP Decoded METAR 2020/11/28 18:53 UTC NOAA

GALLUP MUNICIPAL AIRPORT, NM, United States (KGUP) 35-31N 108-47W 1971M
Nov 28, 2020 - 01:53 PM EST / 2020.11.28 1853 UTC
Wind: from the SW (230 degrees) at 7 MPH (6 KT):0
Visibility: 10 mile(s):0
Sky conditions: clear
Temperature: 39.0 F (3.9 C)
Dew Point: 28.9 F (-1.7 C)
Relative Humidity: 66%
Pressure (altimeter): 30.26 in. Hg (1024 hPa)
ob: KGUP 281853Z AUTO 23006KT 10SM CLR 04/M02 A3026 RMK AO2 SLP243 T00391017
cycle: 19

Station Type Date Time Source
KGUP TAF 2020/11/28 19:10 UTC NOAA

TAF
AMD KGUP 281908Z 2819/2918 25008KT P6SM SCT040
FM282200 28008KT P6SM FEW050
FM290200 VRB06KT P6SM FEW015
FM291700 03006KT P6SM SKC

Example: see airport list